Time;durP1;ratioP1;P1;durP2;ratioP2;P2;SDS_P1;SDS_P2;PMS_P1;PMS_P2;Temp;Humidity;BMP_temperature;BMP_pressure;BME280_temperature;BME280_humidity;BME280_pressure;Samples;Min_cycle;Max_cycle;Signal;HPM_P1;HPM_P2
2023/04/24 22:05:51;;;;;;;24.98;3.03;;;;;;;7.51;66.73;95764.84;5081985;27;20428;-73
2023/04/24 22:08:18;;;;;;;25.08;3.20;;;;;;;7.67;67.15;95750.88;5066559;28;20044;-73
2023/04/24 22:10:44;;;;;;;82.95;19.58;;;;;;;7.69;66.41;95748.66;5066722;28;20052;-73
2023/04/24 22:13:11;;;;;;;45.90;4.03;;;;;;;7.71;66.78;95735.59;5066399;28;20056;-73
2023/04/24 22:15:37;;;;;;;35.08;3.78;;;;;;;7.81;66.30;95730.69;5066871;28;20411;-73
2023/04/24 22:18:05;;;;;;;31.25;3.50;;;;;;;7.84;65.60;95737.38;5066502;28;20381;-74
2023/04/24 22:20:32;;;;;;;26.08;3.40;;;;;;;7.87;66.23;95739.44;5066968;28;20052;-73
2023/04/24 22:23:00;;;;;;;36.33;3.92;;;;;;;7.72;65.89;95742.59;5066276;28;20123;-73
2023/04/24 22:25:26;;;;;;;26.92;3.28;;;;;;;7.54;66.43;95734.41;5089763;28;20046;-73
2023/04/24 22:27:52;;;;;;;31.58;3.55;;;;;;;7.70;66.34;95728.56;5107052;28;20044;-73
2023/04/24 22:30:19;;;;;;;9.43;3.00;;;;;;;7.87;66.36;95728.63;5106678;28;20093;-73
2023/04/24 22:32:45;;;;;;;41.25;4.28;;;;;;;7.89;66.32;95731.03;5106986;28;20048;-73
2023/04/24 22:35:12;;;;;;;16.67;3.05;;;;;;;7.56;66.82;95734.91;5106669;28;20051;-73
2023/04/24 22:37:38;;;;;;;6.20;3.53;;;;;;;7.66;66.50;95722.19;5106629;28;20048;-73
2023/04/24 22:40:08;;;;;;;5.88;2.60;;;;;;;7.54;66.55;95720.88;5106730;28;20043;-74
2023/04/24 22:42:35;;;;;;;4.65;2.60;;;;;;;7.49;67.41;95720.22;5106808;28;20047;-73
2023/04/24 22:45:03;;;;;;;6.00;3.13;;;;;;;7.44;67.32;95709.53;5106287;28;20062;-74
2023/04/24 22:47:29;;;;;;;5.68;3.25;;;;;;;7.40;67.09;95720.19;5107127;28;20047;-73
2023/04/24 22:49:57;;;;;;;5.80;2.78;;;;;;;7.38;67.60;95708.06;5106654;28;20051;-73
2023/04/24 22:52:23;;;;;;;22.90;4.03;;;;;;;7.37;67.74;95715.41;5105986;28;20072;-74
2023/04/24 22:54:50;;;;;;;14.65;3.50;;;;;;;7.33;68.00;95711.72;5106786;27;20040;-73
2023/04/24 22:57:18;;;;;;;10.02;2.95;;;;;;;7.42;68.32;95707.13;5106574;27;20539;-74
2023/04/24 22:59:45;;;;;;;31.10;4.25;;;;;;;7.40;68.36;95709.34;5106684;28;20509;-73
2023/04/24 23:02:11;;;;;;;19.52;3.47;;;;;;;7.50;68.17;95709.06;5106297;27;20040;-73
2023/04/24 23:04:37;;;;;;;35.08;3.90;;;;;;;7.51;68.03;95694.41;5106474;27;20055;-73
2023/04/24 23:07:04;;;;;;;31.55;4.28;;;;;;;7.62;68.78;95694.91;5105900;27;20044;-73
2023/04/24 23:09:30;;;;;;;34.63;3.38;;;;;;;7.70;69.23;95694.16;5106236;27;20414;-73
2023/04/24 23:11:57;;;;;;;20.17;3.40;;;;;;;7.74;68.99;95697.03;5106509;28;20067;-73
2023/04/24 23:14:25;;;;;;;23.15;3.55;;;;;;;7.50;69.63;95694.72;5105703;27;20039;-73
2023/04/24 23:16:51;;;;;;;14.95;3.35;;;;;;;7.29;70.21;95694.50;5094430;28;20505;-73
2023/04/24 23:19:18;;;;;;;20.73;3.50;;;;;;;7.27;70.32;95683.19;5092394;28;20044;-73
2023/04/24 23:21:44;;;;;;;26.67;3.92;;;;;;;7.28;70.62;95684.78;5092418;28;20044;-73
2023/04/24 23:24:11;;;;;;;18.83;3.50;;;;;;;7.32;71.01;95681.13;5091674;28;20044;-73
2023/04/24 23:26:37;;;;;;;20.48;3.22;;;;;;;7.28;71.16;95674.75;5092430;28;20457;-73
2023/04/24 23:29:04;;;;;;;21.00;2.85;;;;;;;7.51;70.67;95672.72;5091911;28;20040;-73
2023/04/24 23:31:31;;;;;;;26.83;3.28;;;;;;;7.67;71.59;95677.72;5092055;28;20048;-73
2023/04/24 23:33:59;;;;;;;27.50;3.05;;;;;;;7.68;70.81;95682.84;5092020;28;20040;-73
2023/04/24 23:36:25;;;;;;;39.22;3.85;;;;;;;7.77;71.21;95677.41;5091113;28;20487;-72
2023/04/24 23:38:52;;;;;;;54.55;6.68;;;;;;;7.82;71.31;95669.13;5092056;28;20052;-73
2023/04/24 23:41:19;;;;;;;30.20;3.60;;;;;;;7.86;72.32;95659.25;5091036;28;20036;-73
2023/04/24 23:43:45;;;;;;;33.92;3.45;;;;;;;7.73;72.30;95662.91;5091596;28;20071;-73
2023/04/24 23:46:12;;;;;;;37.75;4.32;;;;;;;7.70;71.24;95652.69;5091617;28;20040;-73
2023/04/24 23:48:40;;;;;;;27.77;3.55;;;;;;;7.70;71.50;95663.53;5092277;28;20048;-73
2023/04/24 23:51:06;;;;;;;18.85;3.50;;;;;;;7.57;71.79;95655.25;5091558;28;20047;-73
2023/04/24 23:53:33;;;;;;;17.10;3.35;;;;;;;7.46;71.89;95656.63;5092131;28;20032;-73
2023/04/24 23:55:59;;;;;;;24.33;3.40;;;;;;;7.43;72.15;95659.19;5091901;28;20040;-73
2023/04/24 23:58:25;;;;;;;29.90;3.97;;;;;;;7.33;73.33;95652.13;5091419;28;20407;-73
